Terminal Aerodrome Forecast
Issued by NWS

Home | Current Version | Previous Version | Text Only | Print | Product List | Glossary Off
Versions: 1 2 3 4 5 6 7 8 9 10 11 12 13 14 15 16 17 18 19

841
FTUS42 KMHX 210100 AAA
TAFISO
TAF AMD
KISO 210100Z 2101/2124 00000KT P6SM BKN060
     FM210200 00000KT 3SM BR BKN020
     FM210400 VRB03KT 1SM BR BKN007
     FM210600 VRB03KT 1/2SM FG BKN003
     FM211300 VRB03KT 3SM BR OVC003
     FM211800 16005KT 4SM SHRA SCT005 BKN015
      AMD LTD TO CLD VIS AND WIND=

USA.gov is the U.S. government's official web portal to all federal, state and local government web resources and services.